createdAt,value
2015-12-03T00:00:44.379Z,1018.2
2015-12-03T00:01:44.318Z,1018.3
2015-12-03T00:02:44.261Z,1018.2
2015-12-03T00:03:44.217Z,1018.3
2015-12-03T00:04:44.157Z,1018.3
2015-12-03T00:05:44.098Z,1018.3
2015-12-03T00:06:44.053Z,1018.2
2015-12-03T00:07:43.993Z,1018.2
2015-12-03T00:08:43.946Z,1018.2
2015-12-03T00:09:43.888Z,1018.3
2015-12-03T00:10:43.830Z,1018.2
2015-12-03T00:11:43.769Z,1018.2
2015-12-03T00:12:43.725Z,1018.3
2015-12-03T00:13:43.853Z,1018.3
2015-12-03T00:14:43.603Z,1018.2
2015-12-03T00:15:43.545Z,1018.2
2015-12-03T00:16:43.518Z,1018.2
2015-12-03T00:17:43.630Z,1018.2
2015-12-03T00:18:43.398Z,1018.3
2015-12-03T00:19:43.338Z,1018.3
2015-12-03T00:20:43.293Z,1018.3
2015-12-03T00:21:43.234Z,1018.2
2015-12-03T00:22:43.171Z,1018.3
2015-12-03T00:23:43.114Z,1018.2
2015-12-03T00:24:43.070Z,1018.3
2015-12-03T00:25:42.854Z,1018.3
2015-12-03T00:26:42.965Z,1018.2
2015-12-03T00:27:42.907Z,1018.2
2015-12-03T00:28:42.846Z,1018.3
2015-12-03T00:29:42.803Z,1018.3
2015-12-03T00:30:42.590Z,1018.2
2015-12-03T00:31:42.546Z,1018.2
2015-12-03T00:32:42.653Z,1018.1
2015-12-03T00:33:42.575Z,1018.1
2015-12-03T00:34:42.533Z,1018.2
2015-12-03T00:35:42.493Z,1018.2
2015-12-03T00:36:42.435Z,1018.2
2015-12-03T00:37:42.374Z,1018.2
2015-12-03T00:38:42.315Z,1018.2
2015-12-03T00:39:42.287Z,1018.1
2015-12-03T00:40:42.274Z,1018.2
2015-12-03T00:41:42.149Z,1018.1
2015-12-03T00:42:42.089Z,1018.1
2015-12-03T00:43:42.029Z,1018.1
2015-12-03T00:44:41.984Z,1018.1
2015-12-03T00:45:41.926Z,1018.1
2015-12-03T00:46:41.865Z,1018
2015-12-03T00:47:41.821Z,1018.1
2015-12-03T00:48:41.779Z,1018.1
2015-12-03T00:49:41.719Z,1018.1
2015-12-03T00:50:41.659Z,1018.1
2015-12-03T00:51:41.600Z,1018.2
2015-12-03T00:52:41.555Z,1018.2
2015-12-03T00:53:41.496Z,1018.1
2015-12-03T00:54:41.433Z,1018.2
2015-12-03T00:55:41.389Z,1018
2015-12-03T00:56:41.330Z,1018.1
2015-12-03T00:57:41.270Z,1018.1
2015-12-03T00:58:41.226Z,1018
2015-12-03T00:59:41.166Z,1018
2015-12-03T01:00:41.122Z,1018.1
2015-12-03T01:01:41.062Z,1018.1
2015-12-03T01:02:41.003Z,1018.2
2015-12-03T01:03:40.959Z,1018.2
2015-12-03T01:04:40.900Z,1018.1
2015-12-03T01:05:40.856Z,1018.2
2015-12-03T01:06:40.796Z,1018
2015-12-03T01:07:40.737Z,1018.2
2015-12-03T01:08:40.693Z,1018.1
2015-12-03T01:09:40.632Z,1018.1
2015-12-03T01:10:40.585Z,1018.1
2015-12-03T01:11:40.527Z,1018.1
2015-12-03T01:12:40.326Z,1018.2
2015-12-03T01:13:40.424Z,1018.2
2015-12-03T01:14:40.363Z,1018.1
2015-12-03T01:15:40.304Z,1018.1
2015-12-03T01:16:40.260Z,1018.2
2015-12-03T01:17:40.199Z,1018.1
2015-12-03T01:18:40.140Z,1018.1
2015-12-03T01:19:40.080Z,1018.1
2015-12-03T01:20:40.021Z,1018.1
2015-12-03T01:21:39.977Z,1018.2
2015-12-03T01:22:44.995Z,1018.2
2015-12-03T01:23:39.873Z,1018.2
2015-12-03T01:24:39.813Z,1018.2
2015-12-03T01:25:39.750Z,1018.2
2015-12-03T01:26:39.691Z,1018.2
2015-12-03T01:27:39.493Z,1018.1
2015-12-03T01:28:39.605Z,1018.1
2015-12-03T01:29:39.560Z,1018.2
2015-12-03T01:30:39.485Z,1018.2
2015-12-03T01:31:39.426Z,1018.2
2015-12-03T01:32:39.381Z,1018.2
2015-12-03T01:33:39.337Z,1018.2
2015-12-03T01:34:39.261Z,1018.3
2015-12-03T01:35:39.217Z,1018.2
2015-12-03T01:36:39.361Z,1018.2
2015-12-03T01:37:39.097Z,1018.2
2015-12-03T01:38:39.054Z,1018.3
2015-12-03T01:39:38.995Z,1018.2
2015-12-03T01:40:38.966Z,1018.3
2015-12-03T01:41:38.890Z,1018.2
2015-12-03T01:42:38.831Z,1018.2
2015-12-03T01:43:38.786Z,1018.2
2015-12-03T01:44:38.567Z,1018.3
2015-12-03T01:45:38.682Z,1018.3
2015-12-03T01:46:38.622Z,1018.2
2015-12-03T01:47:38.578Z,1018.3
2015-12-03T01:48:38.519Z,1018.4
2015-12-03T01:49:38.459Z,1018.4
2015-12-03T01:50:38.397Z,1018.3
2015-12-03T01:51:38.367Z,1018.3
2015-12-03T01:52:38.309Z,1018.4
2015-12-03T01:53:38.264Z,1018.3
2015-12-03T01:54:38.188Z,1018.4
2015-12-03T01:55:38.144Z,1018.5
2015-12-03T01:56:38.084Z,1018.5
2015-12-03T01:57:38.024Z,1018.4
2015-12-03T01:58:37.996Z,1018.4
2015-12-03T01:59:37.936Z,1018.4
2015-12-03T02:00:37.845Z,1018.4
2015-12-03T02:01:37.785Z,1018.4
2015-12-03T02:02:37.741Z,1018.5
2015-12-03T02:03:36.932Z,1018.5
2015-12-03T02:04:37.622Z,1018.3
2015-12-03T02:05:37.577Z,1018.4
2015-12-03T02:06:37.518Z,1018.4
2015-12-03T02:07:37.663Z,1018.5
2015-12-03T02:08:37.416Z,1018.5
2015-12-03T02:09:37.371Z,1018.4
2015-12-03T02:10:37.311Z,1018.5
2015-12-03T02:11:37.247Z,1018.5
2015-12-03T02:12:37.201Z,1018.5
2015-12-03T02:13:37.124Z,1018.5
2015-12-03T02:14:37.042Z,1018.5
2015-12-03T02:15:36.965Z,1018.5
2015-12-03T02:16:36.903Z,1018.4
2015-12-03T02:17:36.834Z,1018.6
2015-12-03T02:18:36.768Z,1018.5
2015-12-03T02:19:36.702Z,1018.6
2015-12-03T02:20:36.652Z,1018.5
2015-12-03T02:21:36.586Z,1018.5
2015-12-03T02:22:36.538Z,1018.6
2015-12-03T02:23:36.476Z,1018.6
2015-12-03T02:24:36.414Z,1018.6
2015-12-03T02:25:36.399Z,1018.6
2015-12-03T02:26:36.306Z,1018.5
2015-12-03T02:27:36.260Z,1018.5
2015-12-03T02:28:36.201Z,1018.6
2015-12-03T02:29:36.140Z,1018.6
2015-12-03T02:30:36.094Z,1018.5
2015-12-03T02:31:36.034Z,1018.7
2015-12-03T02:32:35.990Z,1018.6
2015-12-03T02:33:35.930Z,1018.5
2015-12-03T02:34:35.871Z,1018.6
2015-12-03T02:35:35.827Z,1018.7
2015-12-03T02:36:35.767Z,1018.6
2015-12-03T02:37:35.707Z,1018.7
2015-12-03T02:38:35.662Z,1018.5
2015-12-03T02:39:35.603Z,1018.6
2015-12-03T02:40:35.540Z,1018.8
2015-12-03T02:41:35.484Z,1018.7
2015-12-03T02:42:35.440Z,1018.7
2015-12-03T02:43:35.379Z,1018.5
2015-12-03T02:44:35.335Z,1018.5
2015-12-03T02:45:35.275Z,1018.6
2015-12-03T02:46:35.215Z,1018.6
2015-12-03T02:47:35.172Z,1018.6
2015-12-03T02:48:35.111Z,1018.7
2015-12-03T02:49:35.052Z,1018.7
2015-12-03T02:50:34.989Z,1018.6
2015-12-03T02:51:34.961Z,1018.7
2015-12-03T02:52:34.901Z,1018.6
2015-12-03T02:53:34.828Z,1018.6
2015-12-03T02:54:34.972Z,1018.7
2015-12-03T02:55:34.724Z,1018.7
2015-12-03T02:56:34.664Z,1018.7
2015-12-03T02:57:34.620Z,1018.6
2015-12-03T02:58:34.542Z,1018.7
2015-12-03T02:59:34.513Z,1018.7
2015-12-03T03:00:34.298Z,1018.6
2015-12-03T03:01:34.394Z,1018.7
2015-12-03T03:02:34.335Z,1018.6
2015-12-03T03:03:34.275Z,1018.6
2015-12-03T03:04:34.231Z,1018.6
2015-12-03T03:05:34.171Z,1018.8
2015-12-03T03:06:34.127Z,1018.7
2015-12-03T03:07:34.083Z,1018.7
2015-12-03T03:08:34.039Z,1018.8
2015-12-03T03:09:33.963Z,1018.7
2015-12-03T03:10:33.904Z,1018.7
2015-12-03T03:11:33.861Z,1018.8
2015-12-03T03:12:33.832Z,1018.7
2015-12-03T03:13:33.757Z,1018.8
2015-12-03T03:14:33.698Z,1018.8
2015-12-03T03:15:33.637Z,1018.8
2015-12-03T03:16:32.825Z,1018.8
2015-12-03T03:17:33.563Z,1018.7
2015-12-03T03:18:33.661Z,1018.7
2015-12-03T03:19:33.398Z,1018.8
2015-12-03T03:20:33.339Z,1018.7
2015-12-03T03:21:33.294Z,1018.7
2015-12-03T03:22:33.234Z,1018.7
2015-12-03T03:23:33.190Z,1018.7
2015-12-03T03:24:33.128Z,1018.8
2015-12-03T03:25:33.085Z,1018.8
2015-12-03T03:26:33.026Z,1018.8
2015-12-03T03:27:32.966Z,1018.8
2015-12-03T03:28:32.907Z,1018.8
2015-12-03T03:29:32.862Z,1018.9
2015-12-03T03:30:32.802Z,1018.8
2015-12-03T03:31:32.743Z,1018.9
2015-12-03T03:32:32.917Z,1018.8
2015-12-03T03:33:32.638Z,1018.8
2015-12-03T03:34:32.593Z,1018.7
2015-12-03T03:35:32.519Z,1018.7
2015-12-03T03:36:32.474Z,1018.8
2015-12-03T03:37:32.415Z,1018.9
2015-12-03T03:38:32.371Z,1018.8
2015-12-03T03:39:32.309Z,1018.8
2015-12-03T03:40:32.249Z,1018.8
2015-12-03T03:41:32.204Z,1018.9
2015-12-03T03:42:31.379Z,1018.7
2015-12-03T03:43:32.085Z,1018.8
2015-12-03T03:44:32.104Z,1018.8
2015-12-03T03:45:32.029Z,1018.8
2015-12-03T03:46:31.218Z,1018.8
2015-12-03T03:47:31.877Z,1018.8
2015-12-03T03:48:31.833Z,1018.8
2015-12-03T03:49:31.024Z,1018.9
2015-12-03T03:50:31.731Z,1018.8
2015-12-03T03:51:31.656Z,1018.8
2015-12-03T03:52:31.612Z,1019
2015-12-03T03:53:31.552Z,1018.9
2015-12-03T03:54:31.491Z,1018.8
2015-12-03T03:55:31.479Z,1018.9
2015-12-03T03:56:31.369Z,1018.9
2015-12-03T03:57:31.312Z,1018.8
2015-12-03T03:58:31.267Z,1018.9
2015-12-03T03:59:31.254Z,1018.9
2015-12-03T04:00:31.153Z,1018.8
2015-12-03T04:01:31.139Z,1018.9
2015-12-03T04:02:31.048Z,1018.8
2015-12-03T04:03:30.990Z,1018.9
2015-12-03T04:04:30.930Z,1018.9
2015-12-03T04:05:30.870Z,1018.9
2015-12-03T04:06:30.825Z,1018.9
2015-12-03T04:07:30.765Z,1018.9
2015-12-03T04:08:30.722Z,1018.9
2015-12-03T04:09:30.643Z,1018.9
2015-12-03T04:10:30.618Z,1018.9
2015-12-03T04:11:30.542Z,1018.9
2015-12-03T04:12:30.560Z,1019
2015-12-03T04:13:30.439Z,1019
2015-12-03T04:14:30.378Z,1019
2015-12-03T04:15:30.350Z,1019
2015-12-03T04:16:30.275Z,1019
2015-12-03T04:17:30.214Z,1019
2015-12-03T04:18:30.170Z,1019.1
2015-12-03T04:19:30.110Z,1019.1
2015-12-03T04:20:30.050Z,1019.1
2015-12-03T04:21:30.007Z,1019
2015-12-03T04:22:29.944Z,1019.1
2015-12-03T04:23:29.916Z,1019.1
2015-12-03T04:24:29.888Z,1019.1
2015-12-03T04:25:29.796Z,1019.3
2015-12-03T04:26:29.721Z,1019.1
2015-12-03T04:27:29.678Z,1019.1
2015-12-03T04:28:29.617Z,1019.2
2015-12-03T04:29:29.589Z,1019.1
2015-12-03T04:30:29.499Z,1019.1
2015-12-03T04:31:29.471Z,1019.2
2015-12-03T04:32:29.396Z,1019
2015-12-03T04:33:29.335Z,1019.3
2015-12-03T04:34:29.292Z,1019.1
2015-12-03T04:35:29.213Z,1019.2
2015-12-03T04:36:29.172Z,1019.2
2015-12-03T04:37:29.094Z,1019.3
2015-12-03T04:38:29.067Z,1019.1
2015-12-03T04:39:29.008Z,1019.1
2015-12-03T04:40:28.947Z,1019.3
2015-12-03T04:41:28.888Z,1019.2
2015-12-03T04:42:28.859Z,1019.3
2015-12-03T04:43:28.783Z,1019.3
2015-12-03T04:44:28.724Z,1019.3
2015-12-03T04:45:28.663Z,1019.4
2015-12-03T04:46:28.619Z,1019.3
2015-12-03T04:47:28.560Z,1019.3
2015-12-03T04:48:28.516Z,1019.3
2015-12-03T04:49:28.472Z,1019.3
2015-12-03T04:50:28.397Z,1019.4
2015-12-03T04:51:28.337Z,1019.3
2015-12-03T04:52:28.480Z,1019.4
2015-12-03T04:53:28.233Z,1019.5
2015-12-03T04:54:28.173Z,1019.4
2015-12-03T04:55:28.114Z,1019.3
2015-12-03T04:56:28.069Z,1019.4
2015-12-03T04:57:28.010Z,1019.4
2015-12-03T04:58:27.950Z,1019.4
2015-12-03T04:59:27.905Z,1019.4
2015-12-03T05:00:28.033Z,1019.4
2015-12-03T05:01:27.799Z,1019.5
2015-12-03T05:02:27.740Z,1019.4
2015-12-03T05:03:27.682Z,1019.4
2015-12-03T05:04:27.637Z,1019.5
2015-12-03T05:05:27.578Z,1019.5
2015-12-03T05:06:27.518Z,1019.5
2015-12-03T05:07:27.474Z,1019.5
2015-12-03T05:08:27.430Z,1019.4
2015-12-03T05:09:27.352Z,1019.5
2015-12-03T05:10:27.308Z,1019.5
2015-12-03T05:11:27.249Z,1019.5
2015-12-03T05:12:27.184Z,1019.6
2015-12-03T05:13:27.090Z,1019.6
2015-12-03T05:14:27.046Z,1019.5
2015-12-03T05:15:27.001Z,1019.5
2015-12-03T05:16:26.942Z,1019.6
2015-12-03T05:17:27.085Z,1019.5
2015-12-03T05:18:26.822Z,1019.6
2015-12-03T05:19:26.965Z,1019.6
2015-12-03T05:20:26.731Z,1019.5
2015-12-03T05:21:26.672Z,1019.6
2015-12-03T05:22:26.613Z,1019.6
2015-12-03T05:23:25.788Z,1019.5
2015-12-03T05:24:26.494Z,1019.6
2015-12-03T05:25:26.450Z,1019.6
2015-12-03T05:26:26.390Z,1019.6
2015-12-03T05:27:26.347Z,1019.6
2015-12-03T05:28:26.270Z,1019.5
2015-12-03T05:29:26.226Z,1019.5
2015-12-03T05:30:26.163Z,1019.6
2015-12-03T05:31:26.107Z,1019.6
2015-12-03T05:32:25.296Z,1019.6
2015-12-03T05:33:26.002Z,1019.6
2015-12-03T05:34:25.943Z,1019.6
2015-12-03T05:35:25.899Z,1019.6
2015-12-03T05:36:25.838Z,1019.6
2015-12-03T05:37:25.779Z,1019.7
2015-12-03T05:38:25.719Z,1019.6
2015-12-03T05:39:25.675Z,1019.7
2015-12-03T05:40:25.626Z,1019.6
2015-12-03T05:41:25.550Z,1019.6
2015-12-03T05:42:25.505Z,1019.6
2015-12-03T05:43:25.477Z,1019.7
2015-12-03T05:44:25.386Z,1019.6
2015-12-03T05:45:25.342Z,1019.7
2015-12-03T05:46:25.279Z,1019.7
2015-12-03T05:47:25.236Z,1019.7
2015-12-03T05:48:25.191Z,1019.7
2015-12-03T05:49:25.116Z,1019.7
2015-12-03T05:50:25.072Z,1019.7
2015-12-03T05:51:25.386Z,1019.6
2015-12-03T05:52:24.952Z,1019.7
2015-12-03T05:53:24.908Z,1019.7
2015-12-03T05:54:24.864Z,1019.7
2015-12-03T05:55:24.789Z,1019.8
2015-12-03T05:56:24.745Z,1019.7
2015-12-03T05:57:24.731Z,1019.7
2015-12-03T05:58:24.609Z,1019.7
2015-12-03T05:59:24.550Z,1019.6
2015-12-03T06:00:24.490Z,1019.7
2015-12-03T06:01:23.680Z,1019.7
2015-12-03T06:02:24.386Z,1019.7
2015-12-03T06:03:24.326Z,1019.7
2015-12-03T06:04:24.284Z,1019.7
2015-12-03T06:05:24.239Z,1019.7
2015-12-03T06:06:24.179Z,1019.7
2015-12-03T06:07:24.120Z,1019.7
2015-12-03T06:08:24.060Z,1019.9
2015-12-03T06:09:23.998Z,1019.7
2015-12-03T06:10:23.939Z,1019.9
2015-12-03T06:11:23.911Z,1019.8
2015-12-03T06:12:23.836Z,1019.8
2015-12-03T06:13:23.775Z,1019.8
2015-12-03T06:14:23.731Z,1019.8
2015-12-03T06:15:23.672Z,1019.9
2015-12-03T06:16:23.627Z,1019.9
2015-12-03T06:17:23.552Z,1019.8
2015-12-03T06:18:23.508Z,1019.8
2015-12-03T06:19:23.448Z,1019.8
2015-12-03T06:20:23.389Z,1020
2015-12-03T06:21:23.344Z,1019.9
2015-12-03T06:22:23.285Z,1019.8
2015-12-03T06:23:23.224Z,1019.8
2015-12-03T06:24:23.181Z,1019.9
2015-12-03T06:25:23.122Z,1019.9
2015-12-03T06:26:23.061Z,1020
2015-12-03T06:27:23.016Z,1020
2015-12-03T06:28:22.957Z,1019.9
2015-12-03T06:29:22.896Z,1019.9
2015-12-03T06:30:22.084Z,1019.9
2015-12-03T06:31:22.791Z,1020
2015-12-03T06:32:22.731Z,1020
2015-12-03T06:33:22.671Z,1020
2015-12-03T06:34:22.612Z,1019.8
2015-12-03T06:35:22.552Z,1019.9
2015-12-03T06:36:22.679Z,1020
2015-12-03T06:37:22.433Z,1020
2015-12-03T06:38:22.389Z,1020
2015-12-03T06:39:22.329Z,1020.1
2015-12-03T06:40:22.269Z,1020
2015-12-03T06:41:22.209Z,1020.1
2015-12-03T06:42:22.151Z,1020
2015-12-03T06:43:22.106Z,1020
2015-12-03T06:44:22.250Z,1020.1
2015-12-03T06:45:21.986Z,1020
2015-12-03T06:46:21.943Z,1020.1
2015-12-03T06:47:21.883Z,1020.1
2015-12-03T06:48:21.836Z,1020
2015-12-03T06:49:21.778Z,1020.1
2015-12-03T06:50:21.718Z,1020
2015-12-03T06:51:21.658Z,1020
2015-12-03T06:52:21.614Z,1020.1
2015-12-03T06:53:21.554Z,1020.1
2015-12-03T06:54:21.495Z,1020.1
2015-12-03T06:55:21.436Z,1020.2
2015-12-03T06:56:21.594Z,1020.1
2015-12-03T06:57:21.332Z,1020
2015-12-03T06:58:21.474Z,1020.1
2015-12-03T06:59:21.243Z,1020.1
2015-12-03T07:00:21.165Z,1020.1
2015-12-03T07:01:21.123Z,1020.2
2015-12-03T07:02:21.064Z,1020.1
2015-12-03T07:03:21.035Z,1020.2
2015-12-03T07:04:20.959Z,1020.1
2015-12-03T07:05:20.901Z,1020.1
2015-12-03T07:06:20.856Z,1020.2
2015-12-03T07:07:20.795Z,1020.1
2015-12-03T07:08:20.737Z,1020.2
2015-12-03T07:09:20.676Z,1020.2
2015-12-03T07:10:20.617Z,1020.2
2015-12-03T07:11:20.573Z,1020.2
2015-12-03T07:12:20.529Z,1020.3
2015-12-03T07:13:20.453Z,1020.2
2015-12-03T07:14:20.408Z,1020.2
2015-12-03T07:15:20.349Z,1020.2
2015-12-03T07:16:20.286Z,1020.2
2015-12-03T07:17:20.290Z,1020.3
2015-12-03T07:18:20.167Z,1020.2
2015-12-03T07:19:20.123Z,1020.2
2015-12-03T07:20:20.064Z,1020.2
2015-12-03T07:21:20.003Z,1020.3
2015-12-03T07:22:19.945Z,1020.3
2015-12-03T07:23:19.902Z,1020.3
2015-12-03T07:24:19.842Z,1020.3
2015-12-03T07:25:19.782Z,1020.2
2015-12-03T07:26:19.738Z,1020.3
2015-12-03T07:27:19.693Z,1020.4
2015-12-03T07:28:19.615Z,1020.3
2015-12-03T07:29:19.571Z,1020.4
2015-12-03T07:30:19.717Z,1020.4
2015-12-03T07:31:19.453Z,1020.3
2015-12-03T07:32:19.408Z,1020.3
2015-12-03T07:33:19.364Z,1020.4
2015-12-03T07:34:19.306Z,1020.4
2015-12-03T07:35:19.231Z,1020.3
2015-12-03T07:36:19.186Z,1020.2
2015-12-03T07:37:19.127Z,1020.3
2015-12-03T07:38:19.082Z,1020.3
2015-12-03T07:39:19.023Z,1020.2
2015-12-03T07:40:18.995Z,1020.3
2015-12-03T07:41:18.901Z,1020.2
2015-12-03T07:42:18.874Z,1020.3
2015-12-03T07:43:18.798Z,1020.3
2015-12-03T07:44:18.755Z,1020.2
2015-12-03T07:45:18.694Z,1020.2
2015-12-03T07:46:18.636Z,1020.1
2015-12-03T07:47:18.591Z,1020.2
2015-12-03T07:48:18.547Z,1020.1
2015-12-03T07:49:18.487Z,1020.2
2015-12-03T07:50:18.428Z,1020.2
2015-12-03T07:51:18.365Z,1020.1
2015-12-03T07:52:18.321Z,1020.1
2015-12-03T07:53:18.263Z,1020.2
2015-12-03T07:54:18.235Z,1020
2015-12-03T07:55:18.160Z,1020.2
2015-12-03T07:56:18.115Z,1020.1
2015-12-03T07:57:18.055Z,1020
2015-12-03T07:58:18.011Z,1020
2015-12-03T07:59:17.983Z,1020
2015-12-03T08:00:18.070Z,1019.8
2015-12-03T08:01:17.820Z,1019.8
2015-12-03T08:02:17.762Z,1019.8
2015-12-03T08:03:17.718Z,1019.8
2015-12-03T08:04:17.658Z,1019.8
2015-12-03T08:05:17.614Z,1019.8
2015-12-03T08:06:17.555Z,1019.7
2015-12-03T08:07:17.697Z,1019.7
2015-12-03T08:08:17.447Z,1019.7
2015-12-03T08:09:17.388Z,1019.7
2015-12-03T08:10:17.343Z,1019.7
2015-12-03T08:11:17.300Z,1019.7
2015-12-03T08:12:17.255Z,1019.7
2015-12-03T08:13:17.179Z,1019.5
2015-12-03T08:14:17.121Z,1019.6
2015-12-03T08:15:17.076Z,1019.5
2015-12-03T08:16:17.048Z,1019.4
2015-12-03T08:17:16.988Z,1019.5
2015-12-03T08:18:16.928Z,1019.4
2015-12-03T08:19:16.868Z,1019.6
2015-12-03T08:20:16.840Z,1019.5
2015-12-03T08:21:16.779Z,1019.5
2015-12-03T08:22:16.720Z,1019.5
2015-12-03T08:23:16.676Z,1019.6
2015-12-03T08:24:16.601Z,1019.6
2015-12-03T08:25:16.557Z,1019.6
2015-12-03T08:26:16.497Z,1019.5
2015-12-03T08:27:16.455Z,1019.5
2015-12-03T08:28:16.410Z,1019.5
2015-12-03T08:29:16.366Z,1019.6
2015-12-03T08:30:16.306Z,1019.5
2015-12-03T08:31:16.247Z,1019.6
2015-12-03T08:32:16.202Z,1019.6
2015-12-03T08:33:16.139Z,1019.6
2015-12-03T08:34:16.097Z,1019.6
2015-12-03T08:35:16.053Z,1019.7
2015-12-03T08:36:15.992Z,1019.8
2015-12-03T08:37:15.948Z,1019.8
2015-12-03T08:38:15.904Z,1019.6
2015-12-03T08:39:15.111Z,1019.8
2015-12-03T08:40:15.800Z,1019.8
2015-12-03T08:41:15.740Z,1019.8
2015-12-03T08:42:15.711Z,1019.9
2015-12-03T08:43:15.498Z,1020
2015-12-03T08:44:15.594Z,1020.1
2015-12-03T08:45:15.549Z,1020
2015-12-03T08:46:15.506Z,1020.2
2015-12-03T08:47:15.461Z,1020.1
2015-12-03T08:48:15.383Z,1020.1
2015-12-03T08:49:15.355Z,1020
2015-12-03T08:50:15.296Z,1020
2015-12-03T08:51:15.267Z,1020.1
2015-12-03T08:52:15.207Z,1020
2015-12-03T08:53:15.148Z,1020
2015-12-03T08:54:15.090Z,1020
2015-12-03T08:55:15.045Z,1020.1
2015-12-03T08:56:14.251Z,1020.1
2015-12-03T08:57:14.972Z,1020.1
2015-12-03T08:58:14.881Z,1020.1
2015-12-03T08:59:14.837Z,1020.1
2015-12-03T09:00:14.768Z,1020.2
2015-12-03T09:01:14.740Z,1020.1
2015-12-03T09:02:14.693Z,1020
2015-12-03T09:03:14.633Z,1020.1
2015-12-03T09:04:14.573Z,1020.1
2015-12-03T09:05:14.529Z,1020
2015-12-03T09:06:14.469Z,1020.2
2015-12-03T09:07:14.425Z,1020
2015-12-03T09:08:14.381Z,1020
2015-12-03T09:09:14.336Z,1020
2015-12-03T09:10:14.511Z,1020
2015-12-03T09:11:14.233Z,1020
2015-12-03T09:12:14.203Z,1020
2015-12-03T09:13:14.129Z,1020.1
2015-12-03T09:14:14.085Z,1020.1
2015-12-03T09:15:14.041Z,1020
2015-12-03T09:16:13.997Z,1020
2015-12-03T09:17:13.937Z,1020.1
2015-12-03T09:18:13.892Z,1020.1
2015-12-03T09:19:13.848Z,1020.1
2015-12-03T09:20:13.789Z,1020
2015-12-03T09:21:13.776Z,1020.1
2015-12-03T09:22:13.701Z,1020.1
2015-12-03T09:23:13.844Z,1020.2
2015-12-03T09:24:13.597Z,1020.1
2015-12-03T09:25:13.553Z,1020
2015-12-03T09:26:13.509Z,1020
2015-12-03T09:27:13.433Z,1020.1
2015-12-03T09:28:13.420Z,1019.9
2015-12-03T09:29:13.345Z,1020
2015-12-03T09:30:13.317Z,1019.9
2015-12-03T09:31:13.257Z,1020
2015-12-03T09:32:13.197Z,1019.9
2015-12-03T09:33:13.153Z,1019.8
2015-12-03T09:34:13.328Z,1020
2015-12-03T09:35:13.252Z,1019.9
2015-12-03T09:36:13.005Z,1020
2015-12-03T09:37:12.991Z,1019.9
2015-12-03T09:38:12.901Z,1019.7
2015-12-03T09:39:12.841Z,1019.8
2015-12-03T09:40:12.797Z,1019.9
2015-12-03T09:41:12.753Z,1019.8
2015-12-03T09:42:12.706Z,1019.8
2015-12-03T09:43:12.646Z,1019.9
2015-12-03T09:44:12.586Z,1019.8
2015-12-03T09:45:12.542Z,1019.9
2015-12-03T09:46:12.529Z,1019.8
2015-12-03T09:47:12.455Z,1019.9
2015-12-03T09:48:12.394Z,1019.8
2015-12-03T09:49:12.350Z,1019.8
2015-12-03T09:50:12.290Z,1019.8
2015-12-03T09:51:12.247Z,1020
2015-12-03T09:52:12.202Z,1020
2015-12-03T09:53:12.143Z,1020
2015-12-03T09:54:12.083Z,1020
2015-12-03T09:55:12.304Z,1020.1
2015-12-03T09:56:12.026Z,1019.9
2015-12-03T09:57:11.966Z,1019.8
2015-12-03T09:58:11.921Z,1019.9
2015-12-03T09:59:11.846Z,1019.9
2015-12-03T10:00:11.818Z,1020
2015-12-03T10:01:11.758Z,1020
2015-12-03T10:02:11.714Z,1019.9
2015-12-03T10:03:11.638Z,1020
2015-12-03T10:04:11.595Z,1019.8
2015-12-03T10:05:11.551Z,1020
2015-12-03T10:06:11.491Z,1019.9
2015-12-03T10:07:11.454Z,1019.8
2015-12-03T10:08:11.613Z,1019.8
2015-12-03T10:09:11.334Z,1019.8
2015-12-03T10:10:11.275Z,1019.8
2015-12-03T10:11:11.215Z,1019.9
2015-12-03T10:12:11.171Z,1019.8
2015-12-03T10:13:11.142Z,1019.7
2015-12-03T10:14:11.270Z,1019.8
2015-12-03T10:15:11.023Z,1019.7
2015-12-03T10:16:10.962Z,1019.8
2015-12-03T10:17:10.919Z,1019.7
2015-12-03T10:18:10.859Z,1019.9
2015-12-03T10:19:10.765Z,1019.7
2015-12-03T10:20:10.737Z,1019.8
2015-12-03T10:21:10.678Z,1019.8
2015-12-03T10:22:10.617Z,1019.8
2015-12-03T10:23:10.559Z,1019.9
2015-12-03T10:24:10.514Z,1019.9
2015-12-03T10:25:10.453Z,1019.8
2015-12-03T10:26:10.410Z,1019.7
2015-12-03T10:27:09.615Z,1019.7
2015-12-03T10:28:10.306Z,1019.6
2015-12-03T10:29:10.246Z,1019.5
2015-12-03T10:30:10.203Z,1019.5
2015-12-03T10:31:10.158Z,1019.4
2015-12-03T10:32:10.098Z,1019.5
2015-12-03T10:33:10.054Z,1019.6
2015-12-03T10:34:10.009Z,1019.6
2015-12-03T10:35:09.950Z,1019.5
2015-12-03T10:36:09.907Z,1019.6
2015-12-03T10:37:09.878Z,1019.7
2015-12-03T10:38:09.803Z,1019.7
2015-12-03T10:39:09.773Z,1019.8
2015-12-03T10:40:09.714Z,1019.8
2015-12-03T10:41:09.654Z,1019.7
2015-12-03T10:42:09.611Z,1019.8
2015-12-03T10:43:09.567Z,1019.8
2015-12-03T10:44:09.506Z,1019.6
2015-12-03T10:45:09.447Z,1019.8
2015-12-03T10:46:09.403Z,1019.7
2015-12-03T10:47:09.342Z,1019.8
2015-12-03T10:48:09.299Z,1019.7
2015-12-03T10:49:09.223Z,1019.6
2015-12-03T10:50:09.178Z,1019.4
2015-12-03T10:51:09.119Z,1019.2
2015-12-03T10:52:09.075Z,1019.3
2015-12-03T10:53:09.016Z,1019.2
2015-12-03T10:54:09.002Z,1019.2
2015-12-03T10:55:08.908Z,1019.1
2015-12-03T10:56:08.864Z,1019
2015-12-03T10:57:08.821Z,1019
2015-12-03T10:58:08.777Z,1019
2015-12-03T10:59:08.717Z,1019
2015-12-03T11:00:08.689Z,1019.1
2015-12-03T11:01:08.628Z,1019.1
2015-12-03T11:02:08.584Z,1019.2
2015-12-03T11:03:08.540Z,1019.3
2015-12-03T11:04:08.481Z,1019.3
2015-12-03T11:05:08.437Z,1019.3
2015-12-03T11:06:08.392Z,1019.3
2015-12-03T11:07:08.536Z,1019.4
2015-12-03T11:08:08.288Z,1019.4
2015-12-03T11:09:08.244Z,1019.4
2015-12-03T11:10:08.185Z,1019.3
2015-12-03T11:11:08.156Z,1019.2
2015-12-03T11:12:08.080Z,1019.2
2015-12-03T11:13:08.036Z,1018.8
2015-12-03T11:14:07.991Z,1018.6
2015-12-03T11:15:07.963Z,1018.4
2015-12-03T11:16:07.888Z,1018.5
2015-12-03T11:17:07.843Z,1018.4
2015-12-03T11:18:07.784Z,1018.4
2015-12-03T11:19:07.732Z,1018.4
2015-12-03T11:20:07.679Z,1018.6
2015-12-03T11:21:07.626Z,1018.9
2015-12-03T11:22:07.570Z,1019
2015-12-03T11:23:07.536Z,1019
2015-12-03T11:24:07.442Z,1019.1
2015-12-03T11:25:07.395Z,1019
2015-12-03T11:26:07.333Z,1018.9
2015-12-03T11:27:07.285Z,1018.9
2015-12-03T11:28:07.237Z,1019
2015-12-03T11:29:07.178Z,1019.1
2015-12-03T11:30:07.132Z,1019
2015-12-03T11:31:07.071Z,1018.7
2015-12-03T11:32:07.011Z,1018.5
2015-12-03T11:33:06.966Z,1018.2
2015-12-03T11:34:07.124Z,1018.3
2015-12-03T11:35:06.858Z,1018.3
2015-12-03T11:36:06.081Z,1018.2
2015-12-03T11:37:06.770Z,1018.2
2015-12-03T11:38:06.727Z,1018
2015-12-03T11:39:06.667Z,1018
2015-12-03T11:40:06.654Z,1018.2
2015-12-03T11:41:06.578Z,1017.9
2015-12-03T11:42:06.549Z,1018
2015-12-03T11:43:06.471Z,1017.7
2015-12-03T11:44:06.427Z,1017.6
2015-12-03T11:45:06.383Z,1017.7
2015-12-03T11:46:06.325Z,1017.6
2015-12-03T11:47:06.281Z,1018.1
2015-12-03T11:48:06.236Z,1018.1
2015-12-03T11:49:06.192Z,1018.2
2015-12-03T11:50:06.163Z,1018
2015-12-03T11:51:06.104Z,1017.7
2015-12-03T11:52:06.057Z,1017.7
2015-12-03T11:53:05.999Z,1017.8
2015-12-03T11:54:05.970Z,1017.7
2015-12-03T11:55:05.926Z,1017.6
2015-12-03T11:56:05.868Z,1017.8
2015-12-03T11:57:05.824Z,1017.8
2015-12-03T11:58:05.763Z,1017.5
2015-12-03T11:59:05.751Z,1017.4
2015-12-03T12:00:05.660Z,1017.5
2015-12-03T12:01:05.616Z,1017.6
2015-12-03T12:02:05.569Z,1017.6
2015-12-03T12:03:05.525Z,1017.4
2015-12-03T12:04:05.481Z,1017.9
2015-12-03T12:05:05.438Z,1017.5
2015-12-03T12:06:05.395Z,1017.3
2015-12-03T12:07:05.335Z,1017.3
2015-12-03T12:08:05.290Z,1017.2
2015-12-03T12:09:05.231Z,1017
2015-12-03T12:10:05.187Z,1017
2015-12-03T12:11:05.140Z,1017
2015-12-03T12:12:04.346Z,1017
2015-12-03T12:13:05.039Z,1017.3
2015-12-03T12:14:05.010Z,1017.4
2015-12-03T12:15:04.950Z,1017.4
2015-12-03T12:16:04.905Z,1017.5
2015-12-03T12:17:04.861Z,1017.6
2015-12-03T12:18:04.817Z,1017.7
2015-12-03T12:19:04.770Z,1017.7
2015-12-03T12:20:04.725Z,1017.8
2015-12-03T12:21:04.700Z,1018.2
2015-12-03T12:22:04.641Z,1018.2
2015-12-03T12:23:04.580Z,1018.1
2015-12-03T12:24:04.536Z,1018.2
2015-12-03T12:25:04.507Z,1018.3
2015-12-03T12:26:04.448Z,1018.3
2015-12-03T12:27:04.416Z,1018.3
2015-12-03T12:28:04.375Z,1018.5
2015-12-03T12:29:04.299Z,1018.4
2015-12-03T12:30:04.271Z,1018.5
2015-12-03T12:31:04.212Z,1018.5
2015-12-03T12:32:04.167Z,1018.4
2015-12-03T12:33:04.124Z,1018.4